sensor_id;sensor_type;location;lat;lon;timestamp;P1;durP1;ratioP1;P2;durP2;ratioP2
20298;SDS011;10308;42.688;23.256;2023-05-27T00:02:11;6.85;;;6.20;;
20298;SDS011;10308;42.688;23.256;2023-05-27T00:04:39;8.43;;;7.25;;
20298;SDS011;10308;42.688;23.256;2023-05-27T00:07:10;9.38;;;7.32;;
20298;SDS011;10308;42.688;23.256;2023-05-27T00:09:36;9.55;;;8.65;;
20298;SDS011;10308;42.688;23.256;2023-05-27T00:12:07;9.90;;;8.57;;
20298;SDS011;10308;42.688;23.256;2023-05-27T00:14:40;10.43;;;9.38;;
20298;SDS011;10308;42.688;23.256;2023-05-27T00:17:07;9.65;;;8.77;;
20298;SDS011;10308;42.688;23.256;2023-05-27T00:19:36;9.48;;;8.60;;
20298;SDS011;10308;42.688;23.256;2023-05-27T00:22:06;9.38;;;8.52;;
20298;SDS011;10308;42.688;23.256;2023-05-27T00:24:34;10.00;;;9.05;;
20298;SDS011;10308;42.688;23.256;2023-05-27T00:27:04;10.30;;;9.38;;
20298;SDS011;10308;42.688;23.256;2023-05-27T00:29:31;10.55;;;9.55;;
20298;SDS011;10308;42.688;23.256;2023-05-27T01:30:58;4.28;;;3.97;;
20298;SDS011;10308;42.688;23.256;2023-05-27T01:33:32;4.55;;;4.10;;
20298;SDS011;10308;42.688;23.256;2023-05-27T01:36:04;4.80;;;4.38;;
20298;SDS011;10308;42.688;23.256;2023-05-27T01:38:36;4.82;;;4.35;;
20298;SDS011;10308;42.688;23.256;2023-05-27T01:41:08;4.95;;;4.55;;
20298;SDS011;10308;42.688;23.256;2023-05-27T01:43:37;4.43;;;4.03;;
20298;SDS011;10308;42.688;23.256;2023-05-27T01:46:10;4.13;;;3.65;;
20298;SDS011;10308;42.688;23.256;2023-05-27T01:48:40;4.65;;;4.25;;
20298;SDS011;10308;42.688;23.256;2023-05-27T01:51:11;4.70;;;4.30;;
20298;SDS011;10308;42.688;23.256;2023-05-27T01:53:39;4.60;;;4.30;;
20298;SDS011;10308;42.688;23.256;2023-05-27T01:56:10;4.90;;;4.50;;
20298;SDS011;10308;42.688;23.256;2023-05-27T01:58:36;5.13;;;4.72;;
20298;SDS011;10308;42.688;23.256;2023-05-27T02:01:06;5.10;;;4.70;;
20298;SDS011;10308;42.688;23.256;2023-05-27T02:03:35;6.47;;;5.97;;
20298;SDS011;10308;42.688;23.256;2023-05-27T02:06:05;7.20;;;6.53;;
20298;SDS011;10308;42.688;23.256;2023-05-27T02:08:36;7.15;;;6.55;;
20298;SDS011;10308;42.688;23.256;2023-05-27T02:11:06;7.63;;;7.00;;
20298;SDS011;10308;42.688;23.256;2023-05-27T02:13:36;7.75;;;6.63;;
20298;SDS011;10308;42.688;23.256;2023-05-27T02:16:08;9.15;;;8.20;;
20298;SDS011;10308;42.688;23.256;2023-05-27T02:18:38;7.13;;;6.47;;
20298;SDS011;10308;42.688;23.256;2023-05-27T02:21:05;7.38;;;6.68;;
20298;SDS011;10308;42.688;23.256;2023-05-27T02:23:35;6.93;;;6.32;;
20298;SDS011;10308;42.688;23.256;2023-05-27T02:26:05;7.28;;;6.68;;
20298;SDS011;10308;42.688;23.256;2023-05-27T02:28:34;7.13;;;6.57;;
20298;SDS011;10308;42.688;23.256;2023-05-27T02:31:02;7.40;;;6.80;;
20298;SDS011;10308;42.688;23.256;2023-05-27T02:33:30;7.53;;;6.55;;
20298;SDS011;10308;42.688;23.256;2023-05-27T02:35:59;7.35;;;6.75;;
20298;SDS011;10308;42.688;23.256;2023-05-27T02:38:26;7.95;;;7.20;;
20298;SDS011;10308;42.688;23.256;2023-05-27T02:40:57;7.60;;;6.90;;
20298;SDS011;10308;42.688;23.256;2023-05-27T02:43:25;6.95;;;6.35;;
20298;SDS011;10308;42.688;23.256;2023-05-27T02:45:56;6.43;;;5.88;;
20298;SDS011;10308;42.688;23.256;2023-05-27T02:48:27;6.82;;;6.20;;
20298;SDS011;10308;42.688;23.256;2023-05-27T02:50:55;7.38;;;6.78;;
20298;SDS011;10308;42.688;23.256;2023-05-27T02:53:25;6.45;;;5.95;;
20298;SDS011;10308;42.688;23.256;2023-05-27T02:55:53;7.00;;;6.40;;
20298;SDS011;10308;42.688;23.256;2023-05-27T02:58:23;7.05;;;6.43;;
20298;SDS011;10308;42.688;23.256;2023-05-27T03:00:51;7.50;;;6.90;;
20298;SDS011;10308;42.688;23.256;2023-05-27T03:03:19;6.80;;;6.20;;
20298;SDS011;10308;42.688;23.256;2023-05-27T04:05:05;4.80;;;4.50;;
20298;SDS011;10308;42.688;23.256;2023-05-27T04:07:37;5.55;;;4.60;;
20298;SDS011;10308;42.688;23.256;2023-05-27T04:10:07;5.32;;;4.82;;
20298;SDS011;10308;42.688;23.256;2023-05-27T04:12:41;5.40;;;5.00;;
20298;SDS011;10308;42.688;23.256;2023-05-27T04:15:09;5.63;;;4.80;;
20298;SDS011;10308;42.688;23.256;2023-05-27T04:17:37;5.28;;;4.78;;
20298;SDS011;10308;42.688;23.256;2023-05-27T04:20:09;5.03;;;4.63;;
20298;SDS011;10308;42.688;23.256;2023-05-27T04:22:41;5.20;;;4.68;;
20298;SDS011;10308;42.688;23.256;2023-05-27T04:25:09;6.20;;;5.20;;
20298;SDS011;10308;42.688;23.256;2023-05-27T04:27:40;5.57;;;5.00;;
20298;SDS011;10308;42.688;23.256;2023-05-27T04:30:10;5.00;;;4.50;;
20298;SDS011;10308;42.688;23.256;2023-05-27T04:32:38;4.90;;;4.50;;
20298;SDS011;10308;42.688;23.256;2023-05-27T04:35:09;6.32;;;5.82;;
20298;SDS011;10308;42.688;23.256;2023-05-27T04:37:39;4.88;;;4.53;;
20298;SDS011;10308;42.688;23.256;2023-05-27T04:40:11;5.40;;;4.90;;
20298;SDS011;10308;42.688;23.256;2023-05-27T04:42:39;4.97;;;4.57;;
20298;SDS011;10308;42.688;23.256;2023-05-27T04:45:15;5.45;;;4.82;;
20298;SDS011;10308;42.688;23.256;2023-05-27T04:47:46;4.80;;;4.40;;
20298;SDS011;10308;42.688;23.256;2023-05-27T04:50:16;4.50;;;4.15;;
20298;SDS011;10308;42.688;23.256;2023-05-27T04:52:44;4.15;;;3.85;;
20298;SDS011;10308;42.688;23.256;2023-05-27T04:55:13;3.85;;;3.50;;
20298;SDS011;10308;42.688;23.256;2023-05-27T04:57:41;3.80;;;3.50;;
20298;SDS011;10308;42.688;23.256;2023-05-27T05:00:10;3.72;;;3.47;;
20298;SDS011;10308;42.688;23.256;2023-05-27T05:03:02;3.47;;;3.28;;
20298;SDS011;10308;42.688;23.256;2023-05-27T05:05:38;3.63;;;3.33;;
20298;SDS011;10308;42.688;23.256;2023-05-27T05:08:08;3.60;;;3.30;;
20298;SDS011;10308;42.688;23.256;2023-05-27T05:10:40;4.20;;;3.90;;
20298;SDS011;10308;42.688;23.256;2023-05-27T05:13:10;3.75;;;3.45;;
20298;SDS011;10308;42.688;23.256;2023-05-27T05:15:42;5.63;;;3.60;;
20298;SDS011;10308;42.688;23.256;2023-05-27T05:18:11;4.53;;;4.13;;
20298;SDS011;10308;42.688;23.256;2023-05-27T05:20:41;4.55;;;4.20;;
20298;SDS011;10308;42.688;23.256;2023-05-27T05:23:11;5.22;;;4.25;;
20298;SDS011;10308;42.688;23.256;2023-05-27T05:25:41;5.00;;;4.47;;
20298;SDS011;10308;42.688;23.256;2023-05-27T05:28:10;5.20;;;4.80;;
20298;SDS011;10308;42.688;23.256;2023-05-27T05:30:38;5.47;;;4.97;;
20298;SDS011;10308;42.688;23.256;2023-05-27T05:33:06;4.90;;;4.50;;
20298;SDS011;10308;42.688;23.256;2023-05-27T05:35:34;4.95;;;4.45;;
20298;SDS011;10308;42.688;23.256;2023-05-27T05:38:09;6.45;;;4.78;;
20298;SDS011;10308;42.688;23.256;2023-05-27T05:40:38;5.30;;;4.90;;
20298;SDS011;10308;42.688;23.256;2023-05-27T05:43:08;5.60;;;5.20;;
20298;SDS011;10308;42.688;23.256;2023-05-27T05:45:37;8.77;;;6.07;;
20298;SDS011;10308;42.688;23.256;2023-05-27T05:48:05;5.45;;;4.95;;
20298;SDS011;10308;42.688;23.256;2023-05-27T05:50:36;6.30;;;5.43;;
20298;SDS011;10308;42.688;23.256;2023-05-27T05:53:04;6.97;;;6.15;;
20298;SDS011;10308;42.688;23.256;2023-05-27T05:55:33;7.10;;;6.40;;
20298;SDS011;10308;42.688;23.256;2023-05-27T05:58:01;7.13;;;6.43;;
20298;SDS011;10308;42.688;23.256;2023-05-27T06:00:31;6.75;;;6.07;;
20298;SDS011;10308;42.688;23.256;2023-05-27T06:02:59;7.15;;;6.28;;
20298;SDS011;10308;42.688;23.256;2023-05-27T06:05:27;6.40;;;5.80;;
20298;SDS011;10308;42.688;23.256;2023-05-27T06:07:56;8.13;;;6.53;;
20298;SDS011;10308;42.688;23.256;2023-05-27T06:10:24;6.40;;;5.78;;
20298;SDS011;10308;42.688;23.256;2023-05-27T06:12:52;6.15;;;5.65;;
20298;SDS011;10308;42.688;23.256;2023-05-27T06:15:20;6.85;;;6.22;;
20298;SDS011;10308;42.688;23.256;2023-05-27T06:17:52;6.57;;;6.07;;
20298;SDS011;10308;42.688;23.256;2023-05-27T06:20:20;5.90;;;5.40;;
20298;SDS011;10308;42.688;23.256;2023-05-27T06:22:49;6.60;;;6.00;;
20298;SDS011;10308;42.688;23.256;2023-05-27T06:25:15;6.82;;;6.13;;
20298;SDS011;10308;42.688;23.256;2023-05-27T06:27:47;6.40;;;5.80;;
20298;SDS011;10308;42.688;23.256;2023-05-27T06:30:16;6.70;;;6.10;;
20298;SDS011;10308;42.688;23.256;2023-05-27T06:32:44;7.63;;;6.82;;
20298;SDS011;10308;42.688;23.256;2023-05-27T06:35:13;7.55;;;6.40;;
20298;SDS011;10308;42.688;23.256;2023-05-27T06:37:39;6.70;;;6.20;;
20298;SDS011;10308;42.688;23.256;2023-05-27T06:40:07;6.43;;;5.90;;
20298;SDS011;10308;42.688;23.256;2023-05-27T06:42:35;6.88;;;6.15;;
20298;SDS011;10308;42.688;23.256;2023-05-27T06:45:15;7.70;;;6.63;;
20298;SDS011;10308;42.688;23.256;2023-05-27T06:47:44;7.72;;;6.68;;
20298;SDS011;10308;42.688;23.256;2023-05-27T06:50:12;7.18;;;6.57;;
20298;SDS011;10308;42.688;23.256;2023-05-27T06:52:41;7.38;;;6.68;;
20298;SDS011;10308;42.688;23.256;2023-05-27T06:55:11;8.02;;;7.25;;
20298;SDS011;10308;42.688;23.256;2023-05-27T06:57:39;7.15;;;6.55;;
20298;SDS011;10308;42.688;23.256;2023-05-27T07:00:07;7.45;;;6.75;;
20298;SDS011;10308;42.688;23.256;2023-05-27T07:02:42;8.10;;;7.30;;
20298;SDS011;10308;42.688;23.256;2023-05-27T07:05:13;8.13;;;7.43;;
20298;SDS011;10308;42.688;23.256;2023-05-27T07:07:41;9.13;;;8.02;;
20298;SDS011;10308;42.688;23.256;2023-05-27T07:10:09;8.80;;;7.95;;
20298;SDS011;10308;42.688;23.256;2023-05-27T07:12:38;8.88;;;8.07;;
20298;SDS011;10308;42.688;23.256;2023-05-27T07:15:26;8.65;;;7.72;;
20298;SDS011;10308;42.688;23.256;2023-05-27T07:17:58;8.63;;;7.80;;
20298;SDS011;10308;42.688;23.256;2023-05-27T07:20:26;8.88;;;8.07;;
20298;SDS011;10308;42.688;23.256;2023-05-27T07:22:56;8.77;;;7.88;;
20298;SDS011;10308;42.688;23.256;2023-05-27T07:25:23;9.95;;;7.60;;
20298;SDS011;10308;42.688;23.256;2023-05-27T07:27:53;8.52;;;7.82;;
20298;SDS011;10308;42.688;23.256;2023-05-27T07:30:20;8.90;;;7.95;;
20298;SDS011;10308;42.688;23.256;2023-05-27T07:32:47;8.30;;;7.43;;
20298;SDS011;10308;42.688;23.256;2023-05-27T07:35:15;11.20;;;7.65;;
20298;SDS011;10308;42.688;23.256;2023-05-27T07:37:42;8.25;;;7.28;;
20298;SDS011;10308;42.688;23.256;2023-05-27T07:40:09;8.23;;;7.40;;
20298;SDS011;10308;42.688;23.256;2023-05-27T07:42:36;9.02;;;8.15;;
20298;SDS011;10308;42.688;23.256;2023-05-27T07:45:06;8.85;;;8.00;;
20298;SDS011;10308;42.688;23.256;2023-05-27T07:47:33;8.23;;;7.43;;
20298;SDS011;10308;42.688;23.256;2023-05-27T07:50:01;7.90;;;7.18;;
20298;SDS011;10308;42.688;23.256;2023-05-27T07:52:31;8.52;;;7.72;;
20298;SDS011;10308;42.688;23.256;2023-05-27T07:54:59;8.27;;;7.03;;
20298;SDS011;10308;42.688;23.256;2023-05-27T07:57:26;7.00;;;6.40;;
20298;SDS011;10308;42.688;23.256;2023-05-27T07:59:53;6.50;;;5.93;;
20298;SDS011;10308;42.688;23.256;2023-05-27T08:02:20;6.63;;;5.82;;
20298;SDS011;10308;42.688;23.256;2023-05-27T08:04:48;7.28;;;6.57;;
20298;SDS011;10308;42.688;23.256;2023-05-27T08:07:16;7.28;;;6.53;;
20298;SDS011;10308;42.688;23.256;2023-05-27T08:09:44;8.80;;;7.80;;
20298;SDS011;10308;42.688;23.256;2023-05-27T08:12:12;8.02;;;7.22;;
20298;SDS011;10308;42.688;23.256;2023-05-27T08:14:41;7.55;;;6.90;;
20298;SDS011;10308;42.688;23.256;2023-05-27T08:17:12;7.32;;;6.25;;
20298;SDS011;10308;42.688;23.256;2023-05-27T08:19:39;7.25;;;6.55;;
20298;SDS011;10308;42.688;23.256;2023-05-27T08:22:07;6.82;;;6.22;;
20298;SDS011;10308;42.688;23.256;2023-05-27T08:24:48;6.60;;;5.68;;
20298;SDS011;10308;42.688;23.256;2023-05-27T08:27:16;6.70;;;6.00;;
20298;SDS011;10308;42.688;23.256;2023-05-27T08:29:43;7.07;;;6.40;;
20298;SDS011;10308;42.688;23.256;2023-05-27T08:32:11;7.35;;;6.70;;
20298;SDS011;10308;42.688;23.256;2023-05-27T08:34:38;6.57;;;5.72;;
20298;SDS011;10308;42.688;23.256;2023-05-27T08:37:06;6.45;;;5.88;;
20298;SDS011;10308;42.688;23.256;2023-05-27T08:39:37;7.18;;;6.47;;
20298;SDS011;10308;42.688;23.256;2023-05-27T08:42:07;6.00;;;5.40;;
20298;SDS011;10308;42.688;23.256;2023-05-27T08:44:39;5.80;;;5.30;;
20298;SDS011;10308;42.688;23.256;2023-05-27T08:47:06;6.18;;;5.57;;
20298;SDS011;10308;42.688;23.256;2023-05-27T08:49:34;8.57;;;6.50;;
20298;SDS011;10308;42.688;23.256;2023-05-27T08:52:02;7.35;;;5.60;;
20298;SDS011;10308;42.688;23.256;2023-05-27T08:54:32;5.40;;;4.90;;
20298;SDS011;10308;42.688;23.256;2023-05-27T08:57:02;6.03;;;5.38;;
20298;SDS011;10308;42.688;23.256;2023-05-27T08:59:33;5.97;;;5.47;;
20298;SDS011;10308;42.688;23.256;2023-05-27T09:02:00;5.97;;;5.47;;
20298;SDS011;10308;42.688;23.256;2023-05-27T09:04:28;5.97;;;5.35;;
20298;SDS011;10308;42.688;23.256;2023-05-27T09:06:57;7.78;;;6.97;;
20298;SDS011;10308;42.688;23.256;2023-05-27T09:09:24;7.60;;;6.72;;
20298;SDS011;10308;42.688;23.256;2023-05-27T09:11:51;6.90;;;6.10;;
20298;SDS011;10308;42.688;23.256;2023-05-27T09:14:22;6.68;;;6.07;;
20298;SDS011;10308;42.688;23.256;2023-05-27T09:16:54;6.38;;;5.50;;
20298;SDS011;10308;42.688;23.256;2023-05-27T09:19:21;5.53;;;4.97;;
20298;SDS011;10308;42.688;23.256;2023-05-27T09:21:51;5.30;;;4.75;;
20298;SDS011;10308;42.688;23.256;2023-05-27T09:24:19;5.30;;;4.90;;
20298;SDS011;10308;42.688;23.256;2023-05-27T09:26:47;5.63;;;5.10;;
20298;SDS011;10308;42.688;23.256;2023-05-27T09:29:18;5.80;;;5.28;;
20298;SDS011;10308;42.688;23.256;2023-05-27T09:31:44;6.65;;;5.97;;
20298;SDS011;10308;42.688;23.256;2023-05-27T09:34:13;6.50;;;5.90;;
20298;SDS011;10308;42.688;23.256;2023-05-27T09:36:43;6.15;;;5.60;;
20298;SDS011;10308;42.688;23.256;2023-05-27T09:39:10;5.43;;;4.93;;
20298;SDS011;10308;42.688;23.256;2023-05-27T09:41:38;6.25;;;5.65;;
20298;SDS011;10308;42.688;23.256;2023-05-27T09:44:08;6.07;;;5.55;;
20298;SDS011;10308;42.688;23.256;2023-05-27T09:46:35;8.50;;;5.93;;
20298;SDS011;10308;42.688;23.256;2023-05-27T09:49:04;6.82;;;6.22;;
20298;SDS011;10308;42.688;23.256;2023-05-27T09:51:35;7.25;;;5.05;;
20298;SDS011;10308;42.688;23.256;2023-05-27T09:54:03;6.25;;;4.90;;
20298;SDS011;10308;42.688;23.256;2023-05-27T09:56:30;5.57;;;4.63;;
20298;SDS011;10308;42.688;23.256;2023-05-27T09:58:57;6.75;;;5.60;;
20298;SDS011;10308;42.688;23.256;2023-05-27T10:01:27;6.28;;;5.70;;
20298;SDS011;10308;42.688;23.256;2023-05-27T10:03:55;6.25;;;5.75;;
20298;SDS011;10308;42.688;23.256;2023-05-27T10:06:24;6.15;;;5.00;;
20298;SDS011;10308;42.688;23.256;2023-05-27T10:08:56;5.95;;;5.38;;
20298;SDS011;10308;42.688;23.256;2023-05-27T10:11:22;5.57;;;5.13;;
20298;SDS011;10308;42.688;23.256;2023-05-27T10:13:52;6.05;;;5.55;;
20298;SDS011;10308;42.688;23.256;2023-05-27T10:16:19;6.35;;;5.85;;
20298;SDS011;10308;42.688;23.256;2023-05-27T10:18:46;7.50;;;5.97;;
20298;SDS011;10308;42.688;23.256;2023-05-27T10:21:19;5.88;;;5.47;;
20298;SDS011;10308;42.688;23.256;2023-05-27T10:23:52;6.68;;;5.93;;
20298;SDS011;10308;42.688;23.256;2023-05-27T10:26:33;6.50;;;5.95;;
20298;SDS011;10308;42.688;23.256;2023-05-27T10:29:04;5.20;;;4.78;;
20298;SDS011;10308;42.688;23.256;2023-05-27T10:31:32;5.80;;;5.30;;
20298;SDS011;10308;42.688;23.256;2023-05-27T10:34:02;5.78;;;5.20;;
20298;SDS011;10308;42.688;23.256;2023-05-27T10:36:31;5.93;;;5.43;;
20298;SDS011;10308;42.688;23.256;2023-05-27T10:39:03;6.03;;;5.43;;
20298;SDS011;10308;42.688;23.256;2023-05-27T10:41:38;8.13;;;5.60;;
20298;SDS011;10308;42.688;23.256;2023-05-27T10:44:06;6.10;;;5.55;;
20298;SDS011;10308;42.688;23.256;2023-05-27T10:46:39;5.97;;;5.47;;
20298;SDS011;10308;42.688;23.256;2023-05-27T10:49:10;7.72;;;5.10;;
20298;SDS011;10308;42.688;23.256;2023-05-27T10:51:41;5.97;;;5.45;;
20298;SDS011;10308;42.688;23.256;2023-05-27T10:54:12;5.60;;;5.10;;
20298;SDS011;10308;42.688;23.256;2023-05-27T10:56:47;5.70;;;5.05;;
20298;SDS011;10308;42.688;23.256;2023-05-27T10:59:18;5.45;;;4.95;;
20298;SDS011;10308;42.688;23.256;2023-05-27T11:01:48;5.18;;;4.78;;
20298;SDS011;10308;42.688;23.256;2023-05-27T11:04:17;5.20;;;4.60;;
20298;SDS011;10308;42.688;23.256;2023-05-27T11:06:46;5.10;;;4.70;;
20298;SDS011;10308;42.688;23.256;2023-05-27T11:09:24;5.10;;;4.68;;
20298;SDS011;10308;42.688;23.256;2023-05-27T11:11:50;5.05;;;4.65;;
20298;SDS011;10308;42.688;23.256;2023-05-27T11:14:18;5.30;;;4.90;;
20298;SDS011;10308;42.688;23.256;2023-05-27T11:16:46;7.22;;;5.00;;
20298;SDS011;10308;42.688;23.256;2023-05-27T11:19:17;5.60;;;4.95;;
20298;SDS011;10308;42.688;23.256;2023-05-27T11:21:44;5.75;;;5.30;;
20298;SDS011;10308;42.688;23.256;2023-05-27T11:24:15;6.00;;;5.50;;
20298;SDS011;10308;42.688;23.256;2023-05-27T11:26:45;6.47;;;5.20;;
20298;SDS011;10308;42.688;23.256;2023-05-27T11:29:13;6.20;;;5.70;;
20298;SDS011;10308;42.688;23.256;2023-05-27T11:31:48;5.80;;;5.20;;
20298;SDS011;10308;42.688;23.256;2023-05-27T11:34:16;4.97;;;4.57;;
20298;SDS011;10308;42.688;23.256;2023-05-27T11:36:48;6.00;;;5.50;;
20298;SDS011;10308;42.688;23.256;2023-05-27T11:39:16;6.20;;;5.70;;
20298;SDS011;10308;42.688;23.256;2023-05-27T11:41:50;7.30;;;5.60;;
20298;SDS011;10308;42.688;23.256;2023-05-27T11:44:18;6.50;;;5.25;;
20298;SDS011;10308;42.688;23.256;2023-05-27T11:46:46;6.03;;;5.13;;
20298;SDS011;10308;42.688;23.256;2023-05-27T11:49:13;5.63;;;5.13;;
20298;SDS011;10308;42.688;23.256;2023-05-27T11:51:42;5.47;;;5.07;;
20298;SDS011;10308;42.688;23.256;2023-05-27T12:56:29;5.80;;;5.30;;
20298;SDS011;10308;42.688;23.256;2023-05-27T12:58:58;6.32;;;5.82;;
20298;SDS011;10308;42.688;23.256;2023-05-27T13:01:26;4.93;;;4.63;;
20298;SDS011;10308;42.688;23.256;2023-05-27T13:03:56;5.75;;;5.25;;
20298;SDS011;10308;42.688;23.256;2023-05-27T13:06:24;5.68;;;5.18;;
20298;SDS011;10308;42.688;23.256;2023-05-27T13:08:51;5.60;;;5.10;;
20298;SDS011;10308;42.688;23.256;2023-05-27T13:11:19;6.00;;;5.50;;
20298;SDS011;10308;42.688;23.256;2023-05-27T13:13:49;5.82;;;5.35;;
20298;SDS011;10308;42.688;23.256;2023-05-27T13:16:17;6.30;;;5.70;;
20298;SDS011;10308;42.688;23.256;2023-05-27T13:18:44;6.35;;;5.85;;
20298;SDS011;10308;42.688;23.256;2023-05-27T13:21:12;6.72;;;6.07;;
20298;SDS011;10308;42.688;23.256;2023-05-27T13:23:40;5.93;;;5.45;;
20298;SDS011;10308;42.688;23.256;2023-05-27T13:26:08;6.95;;;6.22;;
20298;SDS011;10308;42.688;23.256;2023-05-27T13:28:37;6.32;;;5.78;;
20298;SDS011;10308;42.688;23.256;2023-05-27T13:31:05;5.82;;;5.30;;
20298;SDS011;10308;42.688;23.256;2023-05-27T13:33:33;5.57;;;5.18;;
20298;SDS011;10308;42.688;23.256;2023-05-27T13:36:01;5.80;;;5.35;;
20298;SDS011;10308;42.688;23.256;2023-05-27T13:38:29;5.72;;;5.18;;
20298;SDS011;10308;42.688;23.256;2023-05-27T13:40:55;5.18;;;4.78;;
20298;SDS011;10308;42.688;23.256;2023-05-27T14:45:03;5.70;;;5.07;;
20298;SDS011;10308;42.688;23.256;2023-05-27T14:47:30;5.75;;;5.15;;
20298;SDS011;10308;42.688;23.256;2023-05-27T14:49:59;5.80;;;5.05;;
20298;SDS011;10308;42.688;23.256;2023-05-27T14:52:26;5.68;;;5.18;;
20298;SDS011;10308;42.688;23.256;2023-05-27T14:54:52;5.75;;;5.22;;
20298;SDS011;10308;42.688;23.256;2023-05-27T14:57:19;6.00;;;5.43;;
20298;SDS011;10308;42.688;23.256;2023-05-27T14:59:46;5.50;;;5.00;;
20298;SDS011;10308;42.688;23.256;2023-05-27T15:02:14;10.02;;;5.75;;
20298;SDS011;10308;42.688;23.256;2023-05-27T15:04:41;5.35;;;4.95;;
20298;SDS011;10308;42.688;23.256;2023-05-27T15:07:10;6.43;;;5.82;;
20298;SDS011;10308;42.688;23.256;2023-05-27T15:09:37;5.57;;;5.10;;
20298;SDS011;10308;42.688;23.256;2023-05-27T15:12:04;5.55;;;5.15;;
20298;SDS011;10308;42.688;23.256;2023-05-27T15:14:33;5.72;;;5.22;;
20298;SDS011;10308;42.688;23.256;2023-05-27T15:16:59;5.97;;;5.43;;
20298;SDS011;10308;42.688;23.256;2023-05-27T15:19:30;5.70;;;5.22;;
20298;SDS011;10308;42.688;23.256;2023-05-27T15:21:56;5.22;;;4.72;;
20298;SDS011;10308;42.688;23.256;2023-05-27T15:24:24;5.88;;;5.43;;
20298;SDS011;10308;42.688;23.256;2023-05-27T15:26:53;5.38;;;4.88;;
20298;SDS011;10308;42.688;23.256;2023-05-27T15:29:21;5.57;;;5.13;;
20298;SDS011;10308;42.688;23.256;2023-05-27T15:31:48;5.43;;;5.00;;
20298;SDS011;10308;42.688;23.256;2023-05-27T15:34:15;4.97;;;4.57;;
20298;SDS011;10308;42.688;23.256;2023-05-27T15:36:48;5.50;;;5.05;;
20298;SDS011;10308;42.688;23.256;2023-05-27T15:39:17;6.50;;;5.45;;
20298;SDS011;10308;42.688;23.256;2023-05-27T15:41:44;6.03;;;5.43;;
20298;SDS011;10308;42.688;23.256;2023-05-27T15:44:11;6.47;;;5.88;;
20298;SDS011;10308;42.688;23.256;2023-05-27T15:46:42;6.82;;;6.22;;
20298;SDS011;10308;42.688;23.256;2023-05-27T15:49:12;5.43;;;5.03;;
20298;SDS011;10308;42.688;23.256;2023-05-27T15:51:39;5.43;;;5.03;;
20298;SDS011;10308;42.688;23.256;2023-05-27T15:54:09;5.97;;;5.40;;
20298;SDS011;10308;42.688;23.256;2023-05-27T15:56:38;6.30;;;5.70;;
20298;SDS011;10308;42.688;23.256;2023-05-27T15:59:06;5.97;;;5.38;;
20298;SDS011;10308;42.688;23.256;2023-05-27T16:01:34;6.03;;;5.40;;
20298;SDS011;10308;42.688;23.256;2023-05-27T16:04:03;5.80;;;5.30;;
20298;SDS011;10308;42.688;23.256;2023-05-27T16:06:32;5.20;;;4.80;;
20298;SDS011;10308;42.688;23.256;2023-05-27T16:09:01;6.38;;;5.80;;
20298;SDS011;10308;42.688;23.256;2023-05-27T16:11:31;6.78;;;5.88;;
20298;SDS011;10308;42.688;23.256;2023-05-27T16:13:59;6.57;;;5.50;;
20298;SDS011;10308;42.688;23.256;2023-05-27T16:16:26;6.50;;;5.97;;
20298;SDS011;10308;42.688;23.256;2023-05-27T16:18:52;6.90;;;6.20;;
20298;SDS011;10308;42.688;23.256;2023-05-27T16:21:20;6.03;;;5.53;;
20298;SDS011;10308;42.688;23.256;2023-05-27T16:23:48;6.57;;;5.68;;
20298;SDS011;10308;42.688;23.256;2023-05-27T16:26:15;6.75;;;6.05;;
20298;SDS011;10308;42.688;23.256;2023-05-27T16:28:46;7.47;;;6.10;;
20298;SDS011;10308;42.688;23.256;2023-05-27T16:31:13;6.20;;;5.70;;
20298;SDS011;10308;42.688;23.256;2023-05-27T16:33:41;6.60;;;5.93;;
20298;SDS011;10308;42.688;23.256;2023-05-27T16:36:09;6.13;;;5.63;;
20298;SDS011;10308;42.688;23.256;2023-05-27T16:38:37;6.45;;;5.95;;
20298;SDS011;10308;42.688;23.256;2023-05-27T16:41:05;7.28;;;6.25;;
20298;SDS011;10308;42.688;23.256;2023-05-27T16:43:33;7.70;;;6.60;;
20298;SDS011;10308;42.688;23.256;2023-05-27T16:46:05;8.52;;;6.47;;
20298;SDS011;10308;42.688;23.256;2023-05-27T16:48:33;6.80;;;6.18;;
20298;SDS011;10308;42.688;23.256;2023-05-27T16:51:00;6.63;;;5.93;;
20298;SDS011;10308;42.688;23.256;2023-05-27T16:53:28;8.55;;;7.70;;
20298;SDS011;10308;42.688;23.256;2023-05-27T16:55:55;7.18;;;6.57;;
20298;SDS011;10308;42.688;23.256;2023-05-27T16:58:22;7.28;;;6.57;;
20298;SDS011;10308;42.688;23.256;2023-05-27T17:00:54;7.38;;;6.70;;
20298;SDS011;10308;42.688;23.256;2023-05-27T17:03:24;10.20;;;6.78;;
20298;SDS011;10308;42.688;23.256;2023-05-27T17:05:51;8.25;;;7.55;;
20298;SDS011;10308;42.688;23.256;2023-05-27T17:08:18;8.85;;;7.50;;
20298;SDS011;10308;42.688;23.256;2023-05-27T17:10:45;8.40;;;7.60;;
20298;SDS011;10308;42.688;23.256;2023-05-27T17:13:14;8.27;;;7.35;;
20298;SDS011;10308;42.688;23.256;2023-05-27T17:15:42;8.30;;;7.03;;
20298;SDS011;10308;42.688;23.256;2023-05-27T17:18:09;7.75;;;6.78;;
20298;SDS011;10308;42.688;23.256;2023-05-27T17:20:37;7.47;;;6.78;;
20298;SDS011;10308;42.688;23.256;2023-05-27T17:23:04;8.23;;;7.43;;
20298;SDS011;10308;42.688;23.256;2023-05-27T17:25:31;7.82;;;7.00;;
20298;SDS011;10308;42.688;23.256;2023-05-27T17:27:59;8.75;;;7.85;;
20298;SDS011;10308;42.688;23.256;2023-05-27T17:30:26;8.55;;;7.65;;
20298;SDS011;10308;42.688;23.256;2023-05-27T17:32:53;9.05;;;8.15;;
20298;SDS011;10308;42.688;23.256;2023-05-27T17:35:19;10.18;;;7.95;;
20298;SDS011;10308;42.688;23.256;2023-05-27T17:37:50;8.13;;;7.43;;
20298;SDS011;10308;42.688;23.256;2023-05-27T17:40:17;9.70;;;7.57;;
20298;SDS011;10308;42.688;23.256;2023-05-27T17:42:43;8.60;;;7.45;;
20298;SDS011;10308;42.688;23.256;2023-05-27T17:45:10;8.65;;;7.75;;
20298;SDS011;10308;42.688;23.256;2023-05-27T17:47:38;10.00;;;8.20;;
20298;SDS011;10308;42.688;23.256;2023-05-27T17:50:06;9.25;;;8.35;;
20298;SDS011;10308;42.688;23.256;2023-05-27T17:52:35;11.00;;;8.63;;
20298;SDS011;10308;42.688;23.256;2023-05-27T17:55:03;8.20;;;7.40;;
20298;SDS011;10308;42.688;23.256;2023-05-27T17:57:30;8.50;;;7.70;;
20298;SDS011;10308;42.688;23.256;2023-05-27T17:59:59;9.68;;;8.68;;
20298;SDS011;10308;42.688;23.256;2023-05-27T18:02:27;10.88;;;8.65;;
20298;SDS011;10308;42.688;23.256;2023-05-27T18:04:55;9.68;;;8.68;;
20298;SDS011;10308;42.688;23.256;2023-05-27T18:07:22;10.05;;;7.90;;
20298;SDS011;10308;42.688;23.256;2023-05-27T18:09:49;9.02;;;7.88;;
20298;SDS011;10308;42.688;23.256;2023-05-27T18:12:19;8.65;;;7.80;;
20298;SDS011;10308;42.688;23.256;2023-05-27T18:14:48;7.85;;;7.15;;
20298;SDS011;10308;42.688;23.256;2023-05-27T18:17:16;8.18;;;7.35;;
20298;SDS011;10308;42.688;23.256;2023-05-27T18:19:43;9.57;;;8.57;;
20298;SDS011;10308;42.688;23.256;2023-05-27T18:22:11;8.57;;;7.65;;
20298;SDS011;10308;42.688;23.256;2023-05-27T18:24:38;8.63;;;7.70;;
20298;SDS011;10308;42.688;23.256;2023-05-27T18:27:04;9.00;;;8.10;;
20298;SDS011;10308;42.688;23.256;2023-05-27T18:29:32;10.20;;;9.15;;
20298;SDS011;10308;42.688;23.256;2023-05-27T18:31:59;10.82;;;9.55;;
20298;SDS011;10308;42.688;23.256;2023-05-27T18:34:26;10.05;;;9.05;;
20298;SDS011;10308;42.688;23.256;2023-05-27T18:36:53;10.13;;;8.75;;
20298;SDS011;10308;42.688;23.256;2023-05-27T18:39:19;9.43;;;8.52;;
20298;SDS011;10308;42.688;23.256;2023-05-27T18:41:46;8.40;;;7.60;;
20298;SDS011;10308;42.688;23.256;2023-05-27T18:44:13;8.45;;;7.65;;
20298;SDS011;10308;42.688;23.256;2023-05-27T18:46:43;9.82;;;8.82;;